sensor_id;sensor_type;location;lat;lon;timestamp;P1;durP1;ratioP1;P2;durP2;ratioP2
5807;SDS011;2930;42.678;23.312;2023-04-16T00:00:54;2.33;;;0.60;;
5807;SDS011;2930;42.678;23.312;2023-04-16T00:03:31;0.68;;;0.45;;
5807;SDS011;2930;42.678;23.312;2023-04-16T00:05:56;1.92;;;0.60;;
5807;SDS011;2930;42.678;23.312;2023-04-16T00:08:23;1.70;;;0.55;;
5807;SDS011;2930;42.678;23.312;2023-04-16T00:10:49;0.63;;;0.63;;
5807;SDS011;2930;42.678;23.312;2023-04-16T00:13:15;0.68;;;0.68;;
5807;SDS011;2930;42.678;23.312;2023-04-16T00:15:41;0.57;;;0.57;;
5807;SDS011;2930;42.678;23.312;2023-04-16T00:18:07;0.60;;;0.60;;
5807;SDS011;2930;42.678;23.312;2023-04-16T00:20:32;0.77;;;0.73;;
5807;SDS011;2930;42.678;23.312;2023-04-16T00:22:58;1.40;;;0.70;;
5807;SDS011;2930;42.678;23.312;2023-04-16T00:25:24;1.95;;;0.70;;
5807;SDS011;2930;42.678;23.312;2023-04-16T00:27:49;0.70;;;0.70;;
5807;SDS011;2930;42.678;23.312;2023-04-16T00:30:15;0.47;;;0.47;;
5807;SDS011;2930;42.678;23.312;2023-04-16T00:32:41;1.20;;;1.10;;
5807;SDS011;2930;42.678;23.312;2023-04-16T00:35:07;0.68;;;0.68;;
5807;SDS011;2930;42.678;23.312;2023-04-16T00:37:32;0.82;;;0.60;;
5807;SDS011;2930;42.678;23.312;2023-04-16T00:39:58;0.50;;;0.50;;
5807;SDS011;2930;42.678;23.312;2023-04-16T00:42:24;0.73;;;0.73;;
5807;SDS011;2930;42.678;23.312;2023-04-16T00:44:51;2.60;;;0.73;;
5807;SDS011;2930;42.678;23.312;2023-04-16T00:47:18;0.75;;;0.75;;
5807;SDS011;2930;42.678;23.312;2023-04-16T00:49:51;0.63;;;0.63;;
5807;SDS011;2930;42.678;23.312;2023-04-16T00:52:17;1.13;;;0.95;;
5807;SDS011;2930;42.678;23.312;2023-04-16T00:54:43;4.63;;;1.40;;
5807;SDS011;2930;42.678;23.312;2023-04-16T00:57:10;1.83;;;1.27;;
5807;SDS011;2930;42.678;23.312;2023-04-16T00:59:38;1.67;;;1.40;;
5807;SDS011;2930;42.678;23.312;2023-04-16T01:02:05;2.40;;;1.85;;
5807;SDS011;2930;42.678;23.312;2023-04-16T01:04:31;1.45;;;1.35;;
5807;SDS011;2930;42.678;23.312;2023-04-16T01:06:58;1.70;;;1.50;;
5807;SDS011;2930;42.678;23.312;2023-04-16T01:09:24;4.63;;;1.52;;
5807;SDS011;2930;42.678;23.312;2023-04-16T01:11:50;1.08;;;1.02;;
5807;SDS011;2930;42.678;23.312;2023-04-16T01:14:17;0.77;;;0.73;;
5807;SDS011;2930;42.678;23.312;2023-04-16T01:16:43;3.08;;;1.17;;
5807;SDS011;2930;42.678;23.312;2023-04-16T01:19:08;2.85;;;1.13;;
5807;SDS011;2930;42.678;23.312;2023-04-16T01:21:34;4.50;;;0.98;;
5807;SDS011;2930;42.678;23.312;2023-04-16T01:24:03;1.05;;;1.02;;
5807;SDS011;2930;42.678;23.312;2023-04-16T01:26:29;0.93;;;0.93;;
5807;SDS011;2930;42.678;23.312;2023-04-16T01:28:55;0.77;;;0.77;;
5807;SDS011;2930;42.678;23.312;2023-04-16T01:31:21;1.70;;;0.93;;
5807;SDS011;2930;42.678;23.312;2023-04-16T01:33:48;2.10;;;1.20;;
5807;SDS011;2930;42.678;23.312;2023-04-16T01:36:14;1.13;;;1.02;;
5807;SDS011;2930;42.678;23.312;2023-04-16T01:38:39;0.90;;;0.85;;
5807;SDS011;2930;42.678;23.312;2023-04-16T01:41:06;1.05;;;1.00;;
5807;SDS011;2930;42.678;23.312;2023-04-16T01:43:31;0.93;;;0.93;;
5807;SDS011;2930;42.678;23.312;2023-04-16T01:45:58;0.98;;;0.93;;
5807;SDS011;2930;42.678;23.312;2023-04-16T01:48:36;2.40;;;1.30;;
5807;SDS011;2930;42.678;23.312;2023-04-16T01:51:01;1.50;;;0.98;;
5807;SDS011;2930;42.678;23.312;2023-04-16T01:53:28;1.08;;;1.08;;
5807;SDS011;2930;42.678;23.312;2023-04-16T01:55:54;3.60;;;0.90;;
5807;SDS011;2930;42.678;23.312;2023-04-16T01:58:20;1.33;;;0.87;;
5807;SDS011;2930;42.678;23.312;2023-04-16T02:00:45;1.00;;;0.85;;
5807;SDS011;2930;42.678;23.312;2023-04-16T02:03:11;0.77;;;0.77;;
5807;SDS011;2930;42.678;23.312;2023-04-16T02:05:37;2.13;;;1.05;;
5807;SDS011;2930;42.678;23.312;2023-04-16T02:08:03;1.83;;;1.10;;
5807;SDS011;2930;42.678;23.312;2023-04-16T02:10:29;1.25;;;1.15;;
5807;SDS011;2930;42.678;23.312;2023-04-16T02:12:54;1.90;;;0.80;;
5807;SDS011;2930;42.678;23.312;2023-04-16T02:15:20;2.05;;;0.80;;
5807;SDS011;2930;42.678;23.312;2023-04-16T02:17:47;2.17;;;0.77;;
5807;SDS011;2930;42.678;23.312;2023-04-16T02:20:17;1.95;;;1.23;;
5807;SDS011;2930;42.678;23.312;2023-04-16T02:22:43;1.30;;;0.85;;
5807;SDS011;2930;42.678;23.312;2023-04-16T02:25:09;3.33;;;1.35;;
5807;SDS011;2930;42.678;23.312;2023-04-16T02:27:35;2.33;;;1.30;;
5807;SDS011;2930;42.678;23.312;2023-04-16T02:30:01;0.93;;;0.93;;
5807;SDS011;2930;42.678;23.312;2023-04-16T02:32:28;2.60;;;1.15;;
5807;SDS011;2930;42.678;23.312;2023-04-16T02:34:54;2.93;;;1.40;;
5807;SDS011;2930;42.678;23.312;2023-04-16T02:37:21;1.77;;;1.65;;
5807;SDS011;2930;42.678;23.312;2023-04-16T02:39:47;1.55;;;1.45;;
5807;SDS011;2930;42.678;23.312;2023-04-16T02:42:14;1.67;;;1.23;;
5807;SDS011;2930;42.678;23.312;2023-04-16T02:44:40;1.48;;;1.35;;
5807;SDS011;2930;42.678;23.312;2023-04-16T02:47:06;2.03;;;1.58;;
5807;SDS011;2930;42.678;23.312;2023-04-16T02:49:32;2.25;;;1.10;;
5807;SDS011;2930;42.678;23.312;2023-04-16T02:52:01;3.03;;;1.13;;
5807;SDS011;2930;42.678;23.312;2023-04-16T02:54:28;1.05;;;1.00;;
5807;SDS011;2930;42.678;23.312;2023-04-16T02:56:54;1.45;;;0.65;;
5807;SDS011;2930;42.678;23.312;2023-04-16T02:59:19;1.25;;;1.02;;
5807;SDS011;2930;42.678;23.312;2023-04-16T03:01:45;2.35;;;0.98;;
5807;SDS011;2930;42.678;23.312;2023-04-16T03:04:11;1.67;;;0.90;;
5807;SDS011;2930;42.678;23.312;2023-04-16T03:06:36;2.63;;;1.38;;
5807;SDS011;2930;42.678;23.312;2023-04-16T03:09:02;0.90;;;0.90;;
5807;SDS011;2930;42.678;23.312;2023-04-16T03:11:28;0.85;;;0.68;;
5807;SDS011;2930;42.678;23.312;2023-04-16T03:13:54;0.98;;;0.82;;
5807;SDS011;2930;42.678;23.312;2023-04-16T03:16:20;0.63;;;0.63;;
5807;SDS011;2930;42.678;23.312;2023-04-16T03:18:46;2.08;;;0.90;;
5807;SDS011;2930;42.678;23.312;2023-04-16T03:21:12;0.80;;;0.75;;
5807;SDS011;2930;42.678;23.312;2023-04-16T03:23:37;0.70;;;0.70;;
5807;SDS011;2930;42.678;23.312;2023-04-16T03:26:03;1.55;;;0.90;;
5807;SDS011;2930;42.678;23.312;2023-04-16T03:28:29;0.60;;;0.60;;
5807;SDS011;2930;42.678;23.312;2023-04-16T03:30:55;1.13;;;0.75;;
5807;SDS011;2930;42.678;23.312;2023-04-16T03:33:21;0.93;;;0.93;;
5807;SDS011;2930;42.678;23.312;2023-04-16T03:35:53;0.60;;;0.60;;
5807;SDS011;2930;42.678;23.312;2023-04-16T03:38:22;1.30;;;0.70;;
5807;SDS011;2930;42.678;23.312;2023-04-16T03:40:50;0.50;;;0.50;;
5807;SDS011;2930;42.678;23.312;2023-04-16T03:43:16;1.23;;;0.75;;
5807;SDS011;2930;42.678;23.312;2023-04-16T03:45:44;0.55;;;0.55;;
5807;SDS011;2930;42.678;23.312;2023-04-16T03:48:10;0.73;;;0.73;;
5807;SDS011;2930;42.678;23.312;2023-04-16T03:50:36;2.67;;;0.80;;
5807;SDS011;2930;42.678;23.312;2023-04-16T03:53:02;1.23;;;0.98;;
5807;SDS011;2930;42.678;23.312;2023-04-16T03:55:28;1.33;;;1.17;;
5807;SDS011;2930;42.678;23.312;2023-04-16T03:57:53;0.90;;;0.90;;
5807;SDS011;2930;42.678;23.312;2023-04-16T04:00:19;2.67;;;1.30;;
5807;SDS011;2930;42.678;23.312;2023-04-16T04:02:45;2.53;;;1.40;;
5807;SDS011;2930;42.678;23.312;2023-04-16T04:05:11;1.67;;;1.53;;
5807;SDS011;2930;42.678;23.312;2023-04-16T04:07:37;1.67;;;1.48;;
5807;SDS011;2930;42.678;23.312;2023-04-16T04:10:02;1.27;;;1.27;;
5807;SDS011;2930;42.678;23.312;2023-04-16T04:12:28;1.75;;;1.42;;
5807;SDS011;2930;42.678;23.312;2023-04-16T04:14:54;2.75;;;1.60;;
5807;SDS011;2930;42.678;23.312;2023-04-16T04:17:19;1.38;;;1.38;;
5807;SDS011;2930;42.678;23.312;2023-04-16T04:19:45;1.83;;;1.73;;
5807;SDS011;2930;42.678;23.312;2023-04-16T04:22:11;1.52;;;1.42;;
5807;SDS011;2930;42.678;23.312;2023-04-16T04:24:36;1.75;;;1.35;;
5807;SDS011;2930;42.678;23.312;2023-04-16T04:27:02;1.63;;;1.25;;
5807;SDS011;2930;42.678;23.312;2023-04-16T04:29:28;2.13;;;1.13;;
5807;SDS011;2930;42.678;23.312;2023-04-16T04:31:53;1.58;;;1.50;;
5807;SDS011;2930;42.678;23.312;2023-04-16T04:34:19;2.10;;;1.50;;
5807;SDS011;2930;42.678;23.312;2023-04-16T04:36:45;1.20;;;1.20;;
5807;SDS011;2930;42.678;23.312;2023-04-16T04:39:11;1.30;;;1.20;;
5807;SDS011;2930;42.678;23.312;2023-04-16T04:41:36;1.45;;;1.35;;
5807;SDS011;2930;42.678;23.312;2023-04-16T04:44:02;2.85;;;1.52;;
5807;SDS011;2930;42.678;23.312;2023-04-16T04:46:27;2.60;;;1.25;;
5807;SDS011;2930;42.678;23.312;2023-04-16T04:48:53;1.35;;;1.33;;
5807;SDS011;2930;42.678;23.312;2023-04-16T04:51:19;1.13;;;1.13;;
5807;SDS011;2930;42.678;23.312;2023-04-16T04:53:44;1.17;;;1.17;;
5807;SDS011;2930;42.678;23.312;2023-04-16T04:56:10;1.42;;;1.35;;
5807;SDS011;2930;42.678;23.312;2023-04-16T04:58:36;1.95;;;1.38;;
5807;SDS011;2930;42.678;23.312;2023-04-16T05:01:02;1.67;;;1.33;;
5807;SDS011;2930;42.678;23.312;2023-04-16T05:03:29;1.30;;;1.23;;
5807;SDS011;2930;42.678;23.312;2023-04-16T05:05:55;2.08;;;1.50;;
5807;SDS011;2930;42.678;23.312;2023-04-16T05:08:21;2.55;;;1.73;;
5807;SDS011;2930;42.678;23.312;2023-04-16T05:10:46;2.97;;;1.40;;
5807;SDS011;2930;42.678;23.312;2023-04-16T05:13:12;1.45;;;1.35;;
5807;SDS011;2930;42.678;23.312;2023-04-16T05:15:38;1.92;;;1.80;;
5807;SDS011;2930;42.678;23.312;2023-04-16T05:18:04;1.65;;;1.63;;
5807;SDS011;2930;42.678;23.312;2023-04-16T05:20:30;2.10;;;1.52;;
5807;SDS011;2930;42.678;23.312;2023-04-16T05:22:55;1.42;;;1.40;;
5807;SDS011;2930;42.678;23.312;2023-04-16T05:25:22;2.15;;;1.70;;
5807;SDS011;2930;42.678;23.312;2023-04-16T05:27:48;3.03;;;1.50;;
5807;SDS011;2930;42.678;23.312;2023-04-16T05:30:13;1.30;;;1.30;;
5807;SDS011;2930;42.678;23.312;2023-04-16T05:32:39;2.40;;;2.20;;
5807;SDS011;2930;42.678;23.312;2023-04-16T05:35:05;1.80;;;1.70;;
5807;SDS011;2930;42.678;23.312;2023-04-16T05:37:31;2.13;;;1.42;;
5807;SDS011;2930;42.678;23.312;2023-04-16T05:39:56;1.40;;;1.30;;
5807;SDS011;2930;42.678;23.312;2023-04-16T05:42:22;1.15;;;1.05;;
5807;SDS011;2930;42.678;23.312;2023-04-16T05:44:49;1.73;;;1.52;;
5807;SDS011;2930;42.678;23.312;2023-04-16T05:47:15;2.67;;;1.30;;
5807;SDS011;2930;42.678;23.312;2023-04-16T05:49:41;1.58;;;0.98;;
5807;SDS011;2930;42.678;23.312;2023-04-16T05:52:07;1.38;;;1.27;;
5807;SDS011;2930;42.678;23.312;2023-04-16T05:54:32;3.80;;;1.17;;
5807;SDS011;2930;42.678;23.312;2023-04-16T05:56:59;1.38;;;0.85;;
5807;SDS011;2930;42.678;23.312;2023-04-16T05:59:25;1.00;;;1.00;;
5807;SDS011;2930;42.678;23.312;2023-04-16T06:01:51;1.25;;;1.25;;
5807;SDS011;2930;42.678;23.312;2023-04-16T06:04:17;0.90;;;0.90;;
5807;SDS011;2930;42.678;23.312;2023-04-16T06:06:42;1.77;;;1.60;;
5807;SDS011;2930;42.678;23.312;2023-04-16T06:09:08;1.42;;;1.33;;
5807;SDS011;2930;42.678;23.312;2023-04-16T06:11:35;1.52;;;1.42;;
5807;SDS011;2930;42.678;23.312;2023-04-16T06:14:00;1.75;;;1.30;;
5807;SDS011;2930;42.678;23.312;2023-04-16T06:16:26;2.35;;;1.75;;
5807;SDS011;2930;42.678;23.312;2023-04-16T06:18:51;3.70;;;1.85;;
5807;SDS011;2930;42.678;23.312;2023-04-16T06:21:17;1.55;;;1.45;;
5807;SDS011;2930;42.678;23.312;2023-04-16T06:23:43;4.65;;;1.60;;
5807;SDS011;2930;42.678;23.312;2023-04-16T06:26:09;1.63;;;1.35;;
5807;SDS011;2930;42.678;23.312;2023-04-16T06:28:36;4.07;;;1.85;;
5807;SDS011;2930;42.678;23.312;2023-04-16T06:31:03;4.55;;;1.45;;
5807;SDS011;2930;42.678;23.312;2023-04-16T06:33:29;1.55;;;1.38;;
5807;SDS011;2930;42.678;23.312;2023-04-16T06:35:54;1.67;;;1.55;;
5807;SDS011;2930;42.678;23.312;2023-04-16T06:38:20;2.00;;;1.58;;
5807;SDS011;2930;42.678;23.312;2023-04-16T06:40:47;4.38;;;1.95;;
5807;SDS011;2930;42.678;23.312;2023-04-16T06:43:13;1.08;;;1.08;;
5807;SDS011;2930;42.678;23.312;2023-04-16T06:45:39;2.95;;;1.45;;
5807;SDS011;2930;42.678;23.312;2023-04-16T06:48:05;1.00;;;1.00;;
5807;SDS011;2930;42.678;23.312;2023-04-16T06:50:31;1.95;;;1.27;;
5807;SDS011;2930;42.678;23.312;2023-04-16T06:52:57;1.27;;;1.17;;
5807;SDS011;2930;42.678;23.312;2023-04-16T06:55:22;1.55;;;1.45;;
5807;SDS011;2930;42.678;23.312;2023-04-16T06:57:48;2.33;;;1.23;;
5807;SDS011;2930;42.678;23.312;2023-04-16T07:00:14;1.55;;;1.42;;
5807;SDS011;2930;42.678;23.312;2023-04-16T07:02:40;2.15;;;1.58;;
5807;SDS011;2930;42.678;23.312;2023-04-16T07:05:06;1.65;;;1.55;;
5807;SDS011;2930;42.678;23.312;2023-04-16T07:07:33;2.65;;;1.55;;
5807;SDS011;2930;42.678;23.312;2023-04-16T07:09:58;1.48;;;1.27;;
5807;SDS011;2930;42.678;23.312;2023-04-16T07:12:24;2.22;;;1.23;;
5807;SDS011;2930;42.678;23.312;2023-04-16T07:14:51;1.02;;;1.02;;
5807;SDS011;2930;42.678;23.312;2023-04-16T07:17:16;0.93;;;0.90;;
5807;SDS011;2930;42.678;23.312;2023-04-16T07:19:42;2.10;;;1.40;;
5807;SDS011;2930;42.678;23.312;2023-04-16T07:22:08;0.95;;;0.95;;
5807;SDS011;2930;42.678;23.312;2023-04-16T07:24:34;2.00;;;1.40;;
5807;SDS011;2930;42.678;23.312;2023-04-16T07:27:01;1.38;;;0.95;;
5807;SDS011;2930;42.678;23.312;2023-04-16T07:29:27;1.10;;;1.10;;
5807;SDS011;2930;42.678;23.312;2023-04-16T07:31:52;4.30;;;0.95;;
5807;SDS011;2930;42.678;23.312;2023-04-16T07:34:18;0.93;;;0.93;;
5807;SDS011;2930;42.678;23.312;2023-04-16T07:36:44;0.93;;;0.93;;
5807;SDS011;2930;42.678;23.312;2023-04-16T07:39:10;1.05;;;1.00;;
5807;SDS011;2930;42.678;23.312;2023-04-16T07:41:37;1.73;;;1.33;;
5807;SDS011;2930;42.678;23.312;2023-04-16T07:44:04;1.10;;;0.95;;
5807;SDS011;2930;42.678;23.312;2023-04-16T07:46:30;1.25;;;1.10;;
5807;SDS011;2930;42.678;23.312;2023-04-16T07:48:56;1.10;;;1.10;;
5807;SDS011;2930;42.678;23.312;2023-04-16T07:51:22;2.38;;;1.48;;
5807;SDS011;2930;42.678;23.312;2023-04-16T07:53:48;1.48;;;1.38;;
5807;SDS011;2930;42.678;23.312;2023-04-16T07:56:14;1.20;;;1.20;;
5807;SDS011;2930;42.678;23.312;2023-04-16T07:58:39;1.20;;;1.20;;
5807;SDS011;2930;42.678;23.312;2023-04-16T08:01:05;1.80;;;1.30;;
5807;SDS011;2930;42.678;23.312;2023-04-16T08:03:30;3.15;;;1.67;;
5807;SDS011;2930;42.678;23.312;2023-04-16T08:05:56;3.03;;;1.40;;
5807;SDS011;2930;42.678;23.312;2023-04-16T08:08:22;1.25;;;1.15;;
5807;SDS011;2930;42.678;23.312;2023-04-16T08:10:48;1.45;;;1.38;;
5807;SDS011;2930;42.678;23.312;2023-04-16T08:13:14;2.60;;;1.48;;
5807;SDS011;2930;42.678;23.312;2023-04-16T08:15:39;2.53;;;1.30;;
5807;SDS011;2930;42.678;23.312;2023-04-16T08:18:05;2.95;;;1.77;;
5807;SDS011;2930;42.678;23.312;2023-04-16T08:20:36;1.63;;;1.50;;
5807;SDS011;2930;42.678;23.312;2023-04-16T08:23:03;5.35;;;1.80;;
5807;SDS011;2930;42.678;23.312;2023-04-16T08:25:28;1.15;;;1.15;;
5807;SDS011;2930;42.678;23.312;2023-04-16T08:27:54;2.05;;;1.15;;
5807;SDS011;2930;42.678;23.312;2023-04-16T08:30:20;1.38;;;1.27;;
5807;SDS011;2930;42.678;23.312;2023-04-16T08:32:46;2.55;;;0.95;;
5807;SDS011;2930;42.678;23.312;2023-04-16T08:35:11;2.47;;;1.60;;
5807;SDS011;2930;42.678;23.312;2023-04-16T08:37:37;1.23;;;1.20;;
5807;SDS011;2930;42.678;23.312;2023-04-16T08:40:03;2.05;;;0.90;;
5807;SDS011;2930;42.678;23.312;2023-04-16T08:42:30;0.80;;;0.80;;
5807;SDS011;2930;42.678;23.312;2023-04-16T08:45:16;1.02;;;1.02;;
5807;SDS011;2930;42.678;23.312;2023-04-16T08:47:49;1.40;;;0.85;;
5807;SDS011;2930;42.678;23.312;2023-04-16T08:50:16;1.60;;;0.73;;
5807;SDS011;2930;42.678;23.312;2023-04-16T08:52:58;2.40;;;1.02;;
5807;SDS011;2930;42.678;23.312;2023-04-16T08:55:37;1.10;;;1.10;;
5807;SDS011;2930;42.678;23.312;2023-04-16T08:58:08;1.10;;;1.00;;
5807;SDS011;2930;42.678;23.312;2023-04-16T09:00:39;0.70;;;0.70;;
5807;SDS011;2930;42.678;23.312;2023-04-16T09:03:06;3.72;;;0.82;;
5807;SDS011;2930;42.678;23.312;2023-04-16T09:05:34;0.70;;;0.70;;
5807;SDS011;2930;42.678;23.312;2023-04-16T09:08:00;1.40;;;1.02;;
5807;SDS011;2930;42.678;23.312;2023-04-16T09:10:25;1.05;;;1.05;;
5807;SDS011;2930;42.678;23.312;2023-04-16T09:12:54;0.93;;;0.77;;
5807;SDS011;2930;42.678;23.312;2023-04-16T09:15:20;0.73;;;0.73;;
5807;SDS011;2930;42.678;23.312;2023-04-16T09:17:47;1.13;;;0.93;;
5807;SDS011;2930;42.678;23.312;2023-04-16T09:20:13;1.38;;;0.95;;
5807;SDS011;2930;42.678;23.312;2023-04-16T09:22:40;2.03;;;0.85;;
5807;SDS011;2930;42.678;23.312;2023-04-16T09:25:07;1.10;;;0.77;;
5807;SDS011;2930;42.678;23.312;2023-04-16T09:27:34;0.75;;;0.75;;
5807;SDS011;2930;42.678;23.312;2023-04-16T09:30:00;3.03;;;0.75;;
5807;SDS011;2930;42.678;23.312;2023-04-16T09:32:45;1.10;;;1.00;;
5807;SDS011;2930;42.678;23.312;2023-04-16T09:35:11;2.92;;;1.00;;
5807;SDS011;2930;42.678;23.312;2023-04-16T09:37:38;2.50;;;0.65;;
5807;SDS011;2930;42.678;23.312;2023-04-16T09:40:04;1.02;;;1.00;;
5807;SDS011;2930;42.678;23.312;2023-04-16T09:42:36;3.08;;;1.00;;
5807;SDS011;2930;42.678;23.312;2023-04-16T09:45:02;0.85;;;0.85;;
5807;SDS011;2930;42.678;23.312;2023-04-16T09:47:38;1.25;;;0.70;;
5807;SDS011;2930;42.678;23.312;2023-04-16T09:50:08;3.35;;;1.10;;
5807;SDS011;2930;42.678;23.312;2023-04-16T09:52:38;2.78;;;1.05;;
5807;SDS011;2930;42.678;23.312;2023-04-16T09:55:07;1.88;;;1.27;;
5807;SDS011;2930;42.678;23.312;2023-04-16T09:57:32;2.28;;;0.93;;
5807;SDS011;2930;42.678;23.312;2023-04-16T10:00:04;3.00;;;0.95;;
5807;SDS011;2930;42.678;23.312;2023-04-16T10:02:33;1.08;;;0.88;;
5807;SDS011;2930;42.678;23.312;2023-04-16T10:05:00;1.10;;;1.00;;
5807;SDS011;2930;42.678;23.312;2023-04-16T10:07:34;1.77;;;0.90;;
5807;SDS011;2930;42.678;23.312;2023-04-16T10:10:01;2.28;;;0.80;;
5807;SDS011;2930;42.678;23.312;2023-04-16T10:12:28;0.77;;;0.77;;
5807;SDS011;2930;42.678;23.312;2023-04-16T10:14:54;2.08;;;0.82;;
5807;SDS011;2930;42.678;23.312;2023-04-16T10:17:20;0.88;;;0.88;;
5807;SDS011;2930;42.678;23.312;2023-04-16T10:19:46;0.85;;;0.85;;
5807;SDS011;2930;42.678;23.312;2023-04-16T10:22:12;4.32;;;1.02;;
5807;SDS011;2930;42.678;23.312;2023-04-16T10:24:38;0.88;;;0.88;;
5807;SDS011;2930;42.678;23.312;2023-04-16T10:27:05;0.73;;;0.60;;
5807;SDS011;2930;42.678;23.312;2023-04-16T10:29:31;1.00;;;1.00;;
5807;SDS011;2930;42.678;23.312;2023-04-16T10:31:58;0.70;;;0.70;;
5807;SDS011;2930;42.678;23.312;2023-04-16T10:34:25;1.75;;;0.90;;
5807;SDS011;2930;42.678;23.312;2023-04-16T10:36:53;0.95;;;0.95;;
5807;SDS011;2930;42.678;23.312;2023-04-16T10:39:20;0.60;;;0.60;;
5807;SDS011;2930;42.678;23.312;2023-04-16T10:41:47;2.05;;;0.60;;
5807;SDS011;2930;42.678;23.312;2023-04-16T10:44:17;0.77;;;0.77;;
5807;SDS011;2930;42.678;23.312;2023-04-16T10:46:45;1.50;;;0.70;;
5807;SDS011;2930;42.678;23.312;2023-04-16T10:49:16;0.88;;;0.60;;
5807;SDS011;2930;42.678;23.312;2023-04-16T10:51:51;3.13;;;0.80;;
5807;SDS011;2930;42.678;23.312;2023-04-16T10:54:28;0.80;;;0.80;;
5807;SDS011;2930;42.678;23.312;2023-04-16T10:56:55;0.40;;;0.40;;
5807;SDS011;2930;42.678;23.312;2023-04-16T10:59:22;0.60;;;0.55;;
5807;SDS011;2930;42.678;23.312;2023-04-16T11:01:50;0.60;;;0.60;;
5807;SDS011;2930;42.678;23.312;2023-04-16T11:06:58;1.27;;;0.80;;
5807;SDS011;2930;42.678;23.312;2023-04-16T11:12:16;1.63;;;1.23;;
5807;SDS011;2930;42.678;23.312;2023-04-16T11:17:13;0.90;;;0.90;;
5807;SDS011;2930;42.678;23.312;2023-04-16T11:19:41;2.33;;;0.88;;
5807;SDS011;2930;42.678;23.312;2023-04-16T11:22:08;0.57;;;0.57;;
5807;SDS011;2930;42.678;23.312;2023-04-16T11:24:37;19.13;;;1.40;;
5807;SDS011;2930;42.678;23.312;2023-04-16T11:27:05;0.73;;;0.73;;
5807;SDS011;2930;42.678;23.312;2023-04-16T11:29:31;1.38;;;0.80;;
5807;SDS011;2930;42.678;23.312;2023-04-16T11:31:57;0.60;;;0.60;;
5807;SDS011;2930;42.678;23.312;2023-04-16T11:34:24;1.17;;;1.00;;
5807;SDS011;2930;42.678;23.312;2023-04-16T11:36:50;1.73;;;0.65;;
5807;SDS011;2930;42.678;23.312;2023-04-16T11:39:17;1.85;;;0.73;;
5807;SDS011;2930;42.678;23.312;2023-04-16T11:41:46;0.68;;;0.68;;
5807;SDS011;2930;42.678;23.312;2023-04-16T11:44:24;2.75;;;0.80;;
5807;SDS011;2930;42.678;23.312;2023-04-16T11:46:51;0.50;;;0.50;;
5807;SDS011;2930;42.678;23.312;2023-04-16T11:49:27;1.55;;;0.70;;
5807;SDS011;2930;42.678;23.312;2023-04-16T11:51:53;0.52;;;0.52;;
5807;SDS011;2930;42.678;23.312;2023-04-16T11:54:20;0.57;;;0.57;;
5807;SDS011;2930;42.678;23.312;2023-04-16T11:56:47;0.60;;;0.60;;
5807;SDS011;2930;42.678;23.312;2023-04-16T11:59:15;0.40;;;0.40;;
5807;SDS011;2930;42.678;23.312;2023-04-16T12:01:50;0.50;;;0.50;;
5807;SDS011;2930;42.678;23.312;2023-04-16T12:04:20;1.52;;;0.50;;
5807;SDS011;2930;42.678;23.312;2023-04-16T12:09:31;0.77;;;0.60;;
5807;SDS011;2930;42.678;23.312;2023-04-16T12:11:59;0.82;;;0.50;;
5807;SDS011;2930;42.678;23.312;2023-04-16T12:14:25;0.93;;;0.50;;
5807;SDS011;2930;42.678;23.312;2023-04-16T12:16:51;2.33;;;0.50;;
5807;SDS011;2930;42.678;23.312;2023-04-16T12:19:17;1.38;;;0.50;;
5807;SDS011;2930;42.678;23.312;2023-04-16T12:21:43;0.77;;;0.75;;
5807;SDS011;2930;42.678;23.312;2023-04-16T12:24:12;0.68;;;0.68;;
5807;SDS011;2930;42.678;23.312;2023-04-16T12:31:54;0.40;;;0.38;;
5807;SDS011;2930;42.678;23.312;2023-04-16T12:34:23;1.00;;;0.68;;
5807;SDS011;2930;42.678;23.312;2023-04-16T12:37:02;0.50;;;0.50;;
5807;SDS011;2930;42.678;23.312;2023-04-16T12:39:33;0.90;;;0.45;;
5807;SDS011;2930;42.678;23.312;2023-04-16T12:41:59;0.70;;;0.70;;
5807;SDS011;2930;42.678;23.312;2023-04-16T12:44:24;0.70;;;0.70;;
5807;SDS011;2930;42.678;23.312;2023-04-16T12:46:51;0.70;;;0.70;;
5807;SDS011;2930;42.678;23.312;2023-04-16T12:49:17;0.77;;;0.70;;
5807;SDS011;2930;42.678;23.312;2023-04-16T12:51:44;2.28;;;0.70;;
5807;SDS011;2930;42.678;23.312;2023-04-16T12:54:11;1.75;;;0.55;;
5807;SDS011;2930;42.678;23.312;2023-04-16T12:56:36;1.80;;;0.80;;
5807;SDS011;2930;42.678;23.312;2023-04-16T12:59:02;0.70;;;0.70;;
5807;SDS011;2930;42.678;23.312;2023-04-16T13:01:28;1.83;;;0.70;;
5807;SDS011;2930;42.678;23.312;2023-04-16T13:03:53;1.30;;;1.02;;
5807;SDS011;2930;42.678;23.312;2023-04-16T13:06:20;1.30;;;0.93;;
5807;SDS011;2930;42.678;23.312;2023-04-16T13:08:46;1.85;;;0.70;;
5807;SDS011;2930;42.678;23.312;2023-04-16T13:11:11;0.80;;;0.80;;
5807;SDS011;2930;42.678;23.312;2023-04-16T13:13:37;1.95;;;0.90;;
5807;SDS011;2930;42.678;23.312;2023-04-16T13:16:03;0.75;;;0.75;;
5807;SDS011;2930;42.678;23.312;2023-04-16T13:18:32;1.42;;;0.60;;
5807;SDS011;2930;42.678;23.312;2023-04-16T13:20:58;0.52;;;0.52;;
5807;SDS011;2930;42.678;23.312;2023-04-16T13:23:23;1.77;;;0.68;;
5807;SDS011;2930;42.678;23.312;2023-04-16T13:25:49;1.40;;;0.68;;
5807;SDS011;2930;42.678;23.312;2023-04-16T13:28:15;1.10;;;0.60;;
5807;SDS011;2930;42.678;23.312;2023-04-16T13:30:41;0.77;;;0.77;;
5807;SDS011;2930;42.678;23.312;2023-04-16T13:33:07;0.70;;;0.70;;
5807;SDS011;2930;42.678;23.312;2023-04-16T13:35:33;3.70;;;0.60;;
5807;SDS011;2930;42.678;23.312;2023-04-16T13:37:59;0.57;;;0.45;;
5807;SDS011;2930;42.678;23.312;2023-04-16T13:40:25;3.13;;;0.40;;
5807;SDS011;2930;42.678;23.312;2023-04-16T13:42:51;0.38;;;0.38;;
5807;SDS011;2930;42.678;23.312;2023-04-16T13:45:16;1.92;;;0.40;;
5807;SDS011;2930;42.678;23.312;2023-04-16T13:47:44;0.40;;;0.40;;
5807;SDS011;2930;42.678;23.312;2023-04-16T13:50:10;0.45;;;0.45;;
5807;SDS011;2930;42.678;23.312;2023-04-16T13:52:35;0.50;;;0.50;;
5807;SDS011;2930;42.678;23.312;2023-04-16T13:55:02;0.45;;;0.40;;
5807;SDS011;2930;42.678;23.312;2023-04-16T13:57:27;0.30;;;0.30;;
5807;SDS011;2930;42.678;23.312;2023-04-16T13:59:54;0.85;;;0.63;;
5807;SDS011;2930;42.678;23.312;2023-04-16T14:02:20;0.40;;;0.40;;
5807;SDS011;2930;42.678;23.312;2023-04-16T14:04:46;0.60;;;0.50;;
5807;SDS011;2930;42.678;23.312;2023-04-16T14:07:13;0.60;;;0.40;;
5807;SDS011;2930;42.678;23.312;2023-04-16T14:09:39;3.15;;;0.68;;
5807;SDS011;2930;42.678;23.312;2023-04-16T14:12:05;0.50;;;0.50;;
5807;SDS011;2930;42.678;23.312;2023-04-16T14:14:31;0.57;;;0.57;;
5807;SDS011;2930;42.678;23.312;2023-04-16T14:16:57;0.40;;;0.40;;
5807;SDS011;2930;42.678;23.312;2023-04-16T14:19:23;0.50;;;0.50;;
5807;SDS011;2930;42.678;23.312;2023-04-16T14:21:49;0.60;;;0.40;;
5807;SDS011;2930;42.678;23.312;2023-04-16T14:24:15;0.30;;;0.30;;
5807;SDS011;2930;42.678;23.312;2023-04-16T14:26:41;0.30;;;0.30;;
5807;SDS011;2930;42.678;23.312;2023-04-16T14:29:07;0.50;;;0.50;;
5807;SDS011;2930;42.678;23.312;2023-04-16T14:31:33;0.40;;;0.40;;
5807;SDS011;2930;42.678;23.312;2023-04-16T14:34:00;0.40;;;0.40;;
5807;SDS011;2930;42.678;23.312;2023-04-16T14:36:26;0.30;;;0.30;;
5807;SDS011;2930;42.678;23.312;2023-04-16T14:38:52;0.60;;;0.60;;
5807;SDS011;2930;42.678;23.312;2023-04-16T14:41:18;0.50;;;0.50;;
5807;SDS011;2930;42.678;23.312;2023-04-16T14:43:43;0.52;;;0.52;;
5807;SDS011;2930;42.678;23.312;2023-04-16T14:46:09;2.40;;;0.68;;
5807;SDS011;2930;42.678;23.312;2023-04-16T14:48:35;0.50;;;0.50;;
5807;SDS011;2930;42.678;23.312;2023-04-16T14:51:00;0.50;;;0.45;;
5807;SDS011;2930;42.678;23.312;2023-04-16T14:53:26;0.70;;;0.70;;
5807;SDS011;2930;42.678;23.312;2023-04-16T14:55:53;0.60;;;0.60;;
5807;SDS011;2930;42.678;23.312;2023-04-16T14:58:22;0.60;;;0.60;;
5807;SDS011;2930;42.678;23.312;2023-04-16T15:00:47;0.60;;;0.60;;
5807;SDS011;2930;42.678;23.312;2023-04-16T15:03:13;0.70;;;0.70;;
5807;SDS011;2930;42.678;23.312;2023-04-16T15:05:40;0.50;;;0.50;;
5807;SDS011;2930;42.678;23.312;2023-04-16T15:08:05;1.05;;;1.05;;
5807;SDS011;2930;42.678;23.312;2023-04-16T15:10:31;0.70;;;0.70;;
5807;SDS011;2930;42.678;23.312;2023-04-16T15:12:57;0.70;;;0.65;;